sensor_id;sensor_type;location;lat;lon;timestamp;P1;durP1;ratioP1;P2;durP2;ratioP2
14060;SDS011;7105;43.616;1.434;2023-04-02T00:01:52;5.43;;;1.20;;
14060;SDS011;7105;43.616;1.434;2023-04-02T00:04:21;8.97;;;1.70;;
14060;SDS011;7105;43.616;1.434;2023-04-02T00:07:33;5.57;;;1.57;;
14060;SDS011;7105;43.616;1.434;2023-04-02T00:10:24;4.67;;;1.50;;
14060;SDS011;7105;43.616;1.434;2023-04-02T00:15:36;4.93;;;1.53;;
14060;SDS011;7105;43.616;1.434;2023-04-02T00:18:08;6.43;;;2.00;;
14060;SDS011;7105;43.616;1.434;2023-04-02T00:20:38;5.70;;;2.60;;
14060;SDS011;7105;43.616;1.434;2023-04-02T00:23:08;7.47;;;2.00;;
14060;SDS011;7105;43.616;1.434;2023-04-02T00:25:36;6.47;;;1.30;;
14060;SDS011;7105;43.616;1.434;2023-04-02T00:28:14;12.03;;;1.63;;
14060;SDS011;7105;43.616;1.434;2023-04-02T00:30:45;6.10;;;1.40;;
14060;SDS011;7105;43.616;1.434;2023-04-02T00:33:29;7.63;;;1.40;;
14060;SDS011;7105;43.616;1.434;2023-04-02T00:35:56;2.33;;;1.00;;
14060;SDS011;7105;43.616;1.434;2023-04-02T00:38:25;8.97;;;1.67;;
14060;SDS011;7105;43.616;1.434;2023-04-02T00:40:55;7.23;;;1.53;;
14060;SDS011;7105;43.616;1.434;2023-04-02T00:43:25;8.23;;;1.33;;
14060;SDS011;7105;43.616;1.434;2023-04-02T00:46:01;7.13;;;1.40;;
14060;SDS011;7105;43.616;1.434;2023-04-02T00:51:29;4.37;;;1.07;;
14060;SDS011;7105;43.616;1.434;2023-04-02T00:54:01;5.10;;;1.07;;
14060;SDS011;7105;43.616;1.434;2023-04-02T00:56:31;4.03;;;1.50;;
14060;SDS011;7105;43.616;1.434;2023-04-02T00:59:21;4.37;;;1.60;;
14060;SDS011;7105;43.616;1.434;2023-04-02T01:01:56;4.53;;;2.07;;
14060;SDS011;7105;43.616;1.434;2023-04-02T01:15:55;4.37;;;1.20;;
14060;SDS011;7105;43.616;1.434;2023-04-02T01:24:04;5.20;;;1.50;;
14060;SDS011;7105;43.616;1.434;2023-04-02T01:29:19;8.20;;;1.60;;
14060;SDS011;7105;43.616;1.434;2023-04-02T01:31:45;6.83;;;1.43;;
14060;SDS011;7105;43.616;1.434;2023-04-02T01:34:14;5.23;;;1.07;;
14060;SDS011;7105;43.616;1.434;2023-04-02T01:39:42;10.00;;;1.50;;
14060;SDS011;7105;43.616;1.434;2023-04-02T01:42:36;4.07;;;1.10;;
14060;SDS011;7105;43.616;1.434;2023-04-02T01:45:09;3.63;;;1.30;;
14060;SDS011;7105;43.616;1.434;2023-04-02T01:47:41;3.77;;;1.33;;
14060;SDS011;7105;43.616;1.434;2023-04-02T01:52:56;4.87;;;1.00;;
14060;SDS011;7105;43.616;1.434;2023-04-02T01:55:34;6.43;;;1.57;;
14060;SDS011;7105;43.616;1.434;2023-04-02T01:58:07;5.90;;;1.27;;
14060;SDS011;7105;43.616;1.434;2023-04-02T02:00:35;4.87;;;1.10;;
14060;SDS011;7105;43.616;1.434;2023-04-02T02:03:09;10.80;;;1.50;;
14060;SDS011;7105;43.616;1.434;2023-04-02T02:05:36;7.43;;;1.17;;
14060;SDS011;7105;43.616;1.434;2023-04-02T02:08:02;7.00;;;1.80;;
14060;SDS011;7105;43.616;1.434;2023-04-02T02:10:32;7.23;;;1.50;;
14060;SDS011;7105;43.616;1.434;2023-04-02T02:13:00;7.13;;;1.43;;
14060;SDS011;7105;43.616;1.434;2023-04-02T02:15:27;8.13;;;1.43;;
14060;SDS011;7105;43.616;1.434;2023-04-02T02:17:59;8.20;;;1.70;;
14060;SDS011;7105;43.616;1.434;2023-04-02T02:20:28;5.20;;;1.30;;
14060;SDS011;7105;43.616;1.434;2023-04-02T02:22:55;9.87;;;1.60;;
14060;SDS011;7105;43.616;1.434;2023-04-02T02:25:25;7.90;;;1.47;;
14060;SDS011;7105;43.616;1.434;2023-04-02T02:30:42;4.93;;;1.87;;
14060;SDS011;7105;43.616;1.434;2023-04-02T02:33:33;6.67;;;2.23;;
14060;SDS011;7105;43.616;1.434;2023-04-02T02:36:07;4.07;;;1.43;;
14060;SDS011;7105;43.616;1.434;2023-04-02T02:46:39;8.30;;;2.53;;
14060;SDS011;7105;43.616;1.434;2023-04-02T02:49:17;8.70;;;1.90;;
14060;SDS011;7105;43.616;1.434;2023-04-02T02:51:53;10.83;;;2.13;;
14060;SDS011;7105;43.616;1.434;2023-04-02T02:54:27;7.83;;;1.60;;
14060;SDS011;7105;43.616;1.434;2023-04-02T02:56:58;8.73;;;2.20;;
14060;SDS011;7105;43.616;1.434;2023-04-02T02:59:26;5.60;;;1.73;;
14060;SDS011;7105;43.616;1.434;2023-04-02T03:01:54;10.50;;;2.47;;
14060;SDS011;7105;43.616;1.434;2023-04-02T03:04:20;14.23;;;2.60;;
14060;SDS011;7105;43.616;1.434;2023-04-02T03:06:54;9.97;;;2.23;;
14060;SDS011;7105;43.616;1.434;2023-04-02T03:09:26;9.43;;;1.97;;
14060;SDS011;7105;43.616;1.434;2023-04-02T03:14:52;12.03;;;1.90;;
14060;SDS011;7105;43.616;1.434;2023-04-02T03:17:36;5.13;;;1.60;;
14060;SDS011;7105;43.616;1.434;2023-04-02T03:22:48;9.00;;;1.90;;
14060;SDS011;7105;43.616;1.434;2023-04-02T03:28:18;11.10;;;2.47;;
14060;SDS011;7105;43.616;1.434;2023-04-02T03:30:49;9.70;;;2.20;;
14060;SDS011;7105;43.616;1.434;2023-04-02T03:35:56;9.77;;;1.90;;
14060;SDS011;7105;43.616;1.434;2023-04-02T03:38:24;9.43;;;1.77;;
14060;SDS011;7105;43.616;1.434;2023-04-02T03:41:02;6.63;;;1.80;;
14060;SDS011;7105;43.616;1.434;2023-04-02T03:43:42;10.20;;;2.13;;
14060;SDS011;7105;43.616;1.434;2023-04-02T03:46:22;7.57;;;1.83;;
14060;SDS011;7105;43.616;1.434;2023-04-02T03:49:01;10.47;;;1.97;;
14060;SDS011;7105;43.616;1.434;2023-04-02T03:51:59;14.40;;;2.03;;
14060;SDS011;7105;43.616;1.434;2023-04-02T03:54:33;10.70;;;2.17;;
14060;SDS011;7105;43.616;1.434;2023-04-02T03:57:00;10.43;;;2.33;;
14060;SDS011;7105;43.616;1.434;2023-04-02T03:59:37;11.43;;;3.17;;
14060;SDS011;7105;43.616;1.434;2023-04-02T04:04:43;12.17;;;2.33;;
14060;SDS011;7105;43.616;1.434;2023-04-02T04:07:20;11.30;;;2.30;;
14060;SDS011;7105;43.616;1.434;2023-04-02T04:09:53;10.97;;;2.20;;
14060;SDS011;7105;43.616;1.434;2023-04-02T04:12:31;10.53;;;2.07;;
14060;SDS011;7105;43.616;1.434;2023-04-02T04:15:07;17.30;;;2.47;;
14060;SDS011;7105;43.616;1.434;2023-04-02T04:17:56;11.87;;;2.07;;
14060;SDS011;7105;43.616;1.434;2023-04-02T04:20:35;11.77;;;2.03;;
14060;SDS011;7105;43.616;1.434;2023-04-02T04:23:30;11.70;;;2.00;;
14060;SDS011;7105;43.616;1.434;2023-04-02T04:28:58;7.63;;;1.70;;
14060;SDS011;7105;43.616;1.434;2023-04-02T04:31:41;10.63;;;2.47;;
14060;SDS011;7105;43.616;1.434;2023-04-02T04:34:18;10.80;;;2.73;;
14060;SDS011;7105;43.616;1.434;2023-04-02T04:37:00;14.63;;;2.57;;
14060;SDS011;7105;43.616;1.434;2023-04-02T04:39:40;8.33;;;2.10;;
14060;SDS011;7105;43.616;1.434;2023-04-02T04:42:12;13.23;;;2.23;;
14060;SDS011;7105;43.616;1.434;2023-04-02T04:44:51;10.03;;;2.43;;
14060;SDS011;7105;43.616;1.434;2023-04-02T04:47:28;13.87;;;2.37;;
14060;SDS011;7105;43.616;1.434;2023-04-02T04:50:00;12.33;;;2.20;;
14060;SDS011;7105;43.616;1.434;2023-04-02T04:52:33;11.10;;;2.20;;
14060;SDS011;7105;43.616;1.434;2023-04-02T04:55:23;13.03;;;2.30;;
14060;SDS011;7105;43.616;1.434;2023-04-02T04:57:58;11.17;;;2.50;;
14060;SDS011;7105;43.616;1.434;2023-04-02T05:00:39;8.83;;;1.93;;
14060;SDS011;7105;43.616;1.434;2023-04-02T05:03:23;12.30;;;2.23;;
14060;SDS011;7105;43.616;1.434;2023-04-02T05:06:21;11.23;;;2.53;;
14060;SDS011;7105;43.616;1.434;2023-04-02T05:08:55;12.47;;;2.30;;
14060;SDS011;7105;43.616;1.434;2023-04-02T05:11:40;13.47;;;3.10;;
14060;SDS011;7105;43.616;1.434;2023-04-02T05:14:18;15.97;;;2.30;;
14060;SDS011;7105;43.616;1.434;2023-04-02T05:17:18;9.23;;;2.13;;
14060;SDS011;7105;43.616;1.434;2023-04-02T05:19:47;12.83;;;2.70;;
14060;SDS011;7105;43.616;1.434;2023-04-02T05:27:36;15.87;;;3.17;;
14060;SDS011;7105;43.616;1.434;2023-04-02T05:30:14;12.87;;;2.30;;
14060;SDS011;7105;43.616;1.434;2023-04-02T05:32:52;10.90;;;1.93;;
14060;SDS011;7105;43.616;1.434;2023-04-02T05:35:32;14.77;;;2.53;;
14060;SDS011;7105;43.616;1.434;2023-04-02T05:38:00;17.37;;;3.13;;
14060;SDS011;7105;43.616;1.434;2023-04-02T05:40:40;16.03;;;2.83;;
14060;SDS011;7105;43.616;1.434;2023-04-02T05:43:10;17.23;;;2.67;;
14060;SDS011;7105;43.616;1.434;2023-04-02T05:45:40;10.93;;;2.83;;
14060;SDS011;7105;43.616;1.434;2023-04-02T05:48:20;12.17;;;2.50;;
14060;SDS011;7105;43.616;1.434;2023-04-02T05:50:51;11.20;;;2.40;;
14060;SDS011;7105;43.616;1.434;2023-04-02T05:53:24;14.93;;;2.30;;
14060;SDS011;7105;43.616;1.434;2023-04-02T05:56:00;11.23;;;2.40;;
14060;SDS011;7105;43.616;1.434;2023-04-02T05:58:43;10.73;;;2.80;;
14060;SDS011;7105;43.616;1.434;2023-04-02T06:01:29;16.77;;;2.57;;
14060;SDS011;7105;43.616;1.434;2023-04-02T06:04:04;11.00;;;2.47;;
14060;SDS011;7105;43.616;1.434;2023-04-02T06:06:39;12.33;;;2.17;;
14060;SDS011;7105;43.616;1.434;2023-04-02T06:11:39;10.67;;;2.30;;
14060;SDS011;7105;43.616;1.434;2023-04-02T06:14:13;12.60;;;2.33;;
14060;SDS011;7105;43.616;1.434;2023-04-02T06:16:40;12.80;;;2.80;;
14060;SDS011;7105;43.616;1.434;2023-04-02T06:19:14;13.30;;;2.70;;
14060;SDS011;7105;43.616;1.434;2023-04-02T06:21:47;11.80;;;2.30;;
14060;SDS011;7105;43.616;1.434;2023-04-02T06:24:17;15.10;;;3.17;;
14060;SDS011;7105;43.616;1.434;2023-04-02T06:26:49;14.53;;;2.97;;
14060;SDS011;7105;43.616;1.434;2023-04-02T06:29:27;10.43;;;2.57;;
14060;SDS011;7105;43.616;1.434;2023-04-02T06:32:04;15.23;;;3.07;;
14060;SDS011;7105;43.616;1.434;2023-04-02T06:34:32;12.63;;;2.50;;
14060;SDS011;7105;43.616;1.434;2023-04-02T06:37:02;16.67;;;3.93;;
14060;SDS011;7105;43.616;1.434;2023-04-02T06:39:37;12.97;;;5.23;;
14060;SDS011;7105;43.616;1.434;2023-04-02T06:42:04;14.77;;;3.80;;
14060;SDS011;7105;43.616;1.434;2023-04-02T06:44:35;13.60;;;2.80;;
14060;SDS011;7105;43.616;1.434;2023-04-02T06:47:03;14.20;;;4.67;;
14060;SDS011;7105;43.616;1.434;2023-04-02T06:49:48;13.20;;;2.80;;
14060;SDS011;7105;43.616;1.434;2023-04-02T06:52:47;18.43;;;5.23;;
14060;SDS011;7105;43.616;1.434;2023-04-02T06:57:56;13.23;;;5.07;;
14060;SDS011;7105;43.616;1.434;2023-04-02T07:00:35;15.63;;;3.47;;
14060;SDS011;7105;43.616;1.434;2023-04-02T07:03:06;11.73;;;3.17;;
14060;SDS011;7105;43.616;1.434;2023-04-02T07:05:37;13.43;;;4.53;;
14060;SDS011;7105;43.616;1.434;2023-04-02T07:08:03;13.83;;;3.30;;
14060;SDS011;7105;43.616;1.434;2023-04-02T07:10:29;13.77;;;2.70;;
14060;SDS011;7105;43.616;1.434;2023-04-02T07:12:55;14.50;;;3.00;;
14060;SDS011;7105;43.616;1.434;2023-04-02T07:15:21;12.50;;;2.63;;
14060;SDS011;7105;43.616;1.434;2023-04-02T07:17:48;14.63;;;3.10;;
14060;SDS011;7105;43.616;1.434;2023-04-02T07:22:55;10.70;;;2.80;;
14060;SDS011;7105;43.616;1.434;2023-04-02T07:25:22;11.77;;;2.30;;
14060;SDS011;7105;43.616;1.434;2023-04-02T07:27:49;11.60;;;2.50;;
14060;SDS011;7105;43.616;1.434;2023-04-02T07:30:16;9.93;;;2.67;;
14060;SDS011;7105;43.616;1.434;2023-04-02T07:32:42;13.70;;;4.23;;
14060;SDS011;7105;43.616;1.434;2023-04-02T07:35:07;18.30;;;3.33;;
14060;SDS011;7105;43.616;1.434;2023-04-02T07:37:34;15.27;;;2.90;;
14060;SDS011;7105;43.616;1.434;2023-04-02T07:40:10;10.23;;;2.60;;
14060;SDS011;7105;43.616;1.434;2023-04-02T07:42:41;14.63;;;3.37;;
14060;SDS011;7105;43.616;1.434;2023-04-02T07:45:07;13.97;;;3.00;;
14060;SDS011;7105;43.616;1.434;2023-04-02T07:47:36;10.03;;;3.00;;
14060;SDS011;7105;43.616;1.434;2023-04-02T07:50:02;9.67;;;2.60;;
14060;SDS011;7105;43.616;1.434;2023-04-02T07:52:28;11.00;;;2.57;;
14060;SDS011;7105;43.616;1.434;2023-04-02T07:54:53;11.77;;;2.77;;
14060;SDS011;7105;43.616;1.434;2023-04-02T07:57:19;10.23;;;2.60;;
14060;SDS011;7105;43.616;1.434;2023-04-02T07:59:45;16.37;;;4.03;;
14060;SDS011;7105;43.616;1.434;2023-04-02T08:02:17;13.37;;;3.10;;
14060;SDS011;7105;43.616;1.434;2023-04-02T08:04:45;14.37;;;3.53;;
14060;SDS011;7105;43.616;1.434;2023-04-02T08:07:11;10.53;;;2.87;;
14060;SDS011;7105;43.616;1.434;2023-04-02T08:09:37;10.43;;;3.50;;
14060;SDS011;7105;43.616;1.434;2023-04-02T08:12:03;14.67;;;3.77;;
14060;SDS011;7105;43.616;1.434;2023-04-02T08:14:29;13.27;;;3.47;;
14060;SDS011;7105;43.616;1.434;2023-04-02T08:16:54;12.87;;;2.60;;
14060;SDS011;7105;43.616;1.434;2023-04-02T08:19:20;13.40;;;2.40;;
14060;SDS011;7105;43.616;1.434;2023-04-02T08:21:46;11.07;;;2.63;;
14060;SDS011;7105;43.616;1.434;2023-04-02T08:24:15;16.90;;;2.63;;
14060;SDS011;7105;43.616;1.434;2023-04-02T08:26:45;13.20;;;2.43;;
14060;SDS011;7105;43.616;1.434;2023-04-02T08:29:12;9.27;;;2.40;;
14060;SDS011;7105;43.616;1.434;2023-04-02T08:31:37;16.70;;;3.20;;
14060;SDS011;7105;43.616;1.434;2023-04-02T08:34:03;11.37;;;2.10;;
14060;SDS011;7105;43.616;1.434;2023-04-02T08:36:29;9.50;;;2.17;;
14060;SDS011;7105;43.616;1.434;2023-04-02T08:38:59;8.20;;;2.10;;
14060;SDS011;7105;43.616;1.434;2023-04-02T08:41:26;11.63;;;2.27;;
14060;SDS011;7105;43.616;1.434;2023-04-02T08:46:22;11.80;;;2.03;;
14060;SDS011;7105;43.616;1.434;2023-04-02T08:49:01;10.03;;;2.20;;
14060;SDS011;7105;43.616;1.434;2023-04-02T08:51:29;10.97;;;2.70;;
14060;SDS011;7105;43.616;1.434;2023-04-02T08:54:06;9.73;;;2.50;;
14060;SDS011;7105;43.616;1.434;2023-04-02T08:57:06;9.87;;;2.30;;
14060;SDS011;7105;43.616;1.434;2023-04-02T08:59:42;10.33;;;2.47;;
14060;SDS011;7105;43.616;1.434;2023-04-02T09:04:59;10.00;;;2.40;;
14060;SDS011;7105;43.616;1.434;2023-04-02T09:07:28;6.50;;;2.10;;
14060;SDS011;7105;43.616;1.434;2023-04-02T09:09:57;7.27;;;2.30;;
14060;SDS011;7105;43.616;1.434;2023-04-02T09:12:27;6.07;;;2.17;;
14060;SDS011;7105;43.616;1.434;2023-04-02T09:17:23;7.13;;;1.93;;
14060;SDS011;7105;43.616;1.434;2023-04-02T09:20:12;7.63;;;2.13;;
14060;SDS011;7105;43.616;1.434;2023-04-02T09:22:46;8.63;;;2.00;;
14060;SDS011;7105;43.616;1.434;2023-04-02T09:25:22;6.17;;;2.10;;
14060;SDS011;7105;43.616;1.434;2023-04-02T09:27:51;6.70;;;1.97;;
14060;SDS011;7105;43.616;1.434;2023-04-02T09:35:22;8.20;;;1.80;;
14060;SDS011;7105;43.616;1.434;2023-04-02T09:38:32;6.10;;;1.63;;
14060;SDS011;7105;43.616;1.434;2023-04-02T09:43:44;7.13;;;1.90;;
14060;SDS011;7105;43.616;1.434;2023-04-02T09:48:38;6.23;;;1.80;;
14060;SDS011;7105;43.616;1.434;2023-04-02T09:51:12;8.37;;;2.00;;
14060;SDS011;7105;43.616;1.434;2023-04-02T09:58:40;3.70;;;1.27;;
14060;SDS011;7105;43.616;1.434;2023-04-02T10:01:26;4.50;;;1.37;;
14060;SDS011;7105;43.616;1.434;2023-04-02T10:04:01;4.30;;;1.50;;
14060;SDS011;7105;43.616;1.434;2023-04-02T10:06:28;4.07;;;1.63;;
14060;SDS011;7105;43.616;1.434;2023-04-02T10:08:54;4.10;;;1.20;;
14060;SDS011;7105;43.616;1.434;2023-04-02T10:13:55;3.93;;;1.80;;
14060;SDS011;7105;43.616;1.434;2023-04-02T10:21:36;3.00;;;1.70;;
14060;SDS011;7105;43.616;1.434;2023-04-02T10:24:11;2.50;;;1.20;;
14060;SDS011;7105;43.616;1.434;2023-04-02T10:34:57;3.20;;;1.10;;
14060;SDS011;7105;43.616;1.434;2023-04-02T10:51:24;4.50;;;1.43;;
14060;SDS011;7105;43.616;1.434;2023-04-02T10:57:57;1.80;;;1.07;;
14060;SDS011;7105;43.616;1.434;2023-04-02T11:05:04;2.83;;;1.20;;
14060;SDS011;7105;43.616;1.434;2023-04-02T11:07:50;2.40;;;1.03;;
14060;SDS011;7105;43.616;1.434;2023-04-02T11:10:21;5.03;;;2.30;;
14060;SDS011;7105;43.616;1.434;2023-04-02T11:13:01;3.17;;;1.23;;
14060;SDS011;7105;43.616;1.434;2023-04-02T11:15:36;2.77;;;1.30;;
14060;SDS011;7105;43.616;1.434;2023-04-02T11:18:03;1.93;;;1.30;;
14060;SDS011;7105;43.616;1.434;2023-04-02T11:20:42;3.97;;;0.90;;
14060;SDS011;7105;43.616;1.434;2023-04-02T11:23:37;2.07;;;1.00;;
14060;SDS011;7105;43.616;1.434;2023-04-02T11:26:30;4.43;;;1.63;;
14060;SDS011;7105;43.616;1.434;2023-04-02T11:29:21;1.87;;;1.07;;
14060;SDS011;7105;43.616;1.434;2023-04-02T11:31:51;2.97;;;1.07;;
14060;SDS011;7105;43.616;1.434;2023-04-02T11:42:35;3.03;;;1.33;;
14060;SDS011;7105;43.616;1.434;2023-04-02T11:55:41;2.40;;;1.07;;
14060;SDS011;7105;43.616;1.434;2023-04-02T12:09:44;2.17;;;1.30;;
14060;SDS011;7105;43.616;1.434;2023-04-02T12:14:55;1.77;;;1.17;;
14060;SDS011;7105;43.616;1.434;2023-04-02T12:22:46;1.90;;;1.00;;
14060;SDS011;7105;43.616;1.434;2023-04-02T12:25:31;1.70;;;1.00;;
14060;SDS011;7105;43.616;1.434;2023-04-02T12:28:02;7.13;;;3.90;;
14060;SDS011;7105;43.616;1.434;2023-04-02T12:30:38;3.60;;;2.27;;
14060;SDS011;7105;43.616;1.434;2023-04-02T12:35:46;5.33;;;2.83;;
14060;SDS011;7105;43.616;1.434;2023-04-02T12:38:28;2.83;;;2.20;;
14060;SDS011;7105;43.616;1.434;2023-04-02T12:41:02;2.57;;;1.50;;
14060;SDS011;7105;43.616;1.434;2023-04-02T12:45:58;2.23;;;1.37;;
14060;SDS011;7105;43.616;1.434;2023-04-02T12:48:32;2.10;;;1.37;;
14060;SDS011;7105;43.616;1.434;2023-04-02T12:50:59;2.40;;;1.23;;
14060;SDS011;7105;43.616;1.434;2023-04-02T12:53:37;2.57;;;1.50;;
14060;SDS011;7105;43.616;1.434;2023-04-02T12:56:04;2.67;;;1.27;;
14060;SDS011;7105;43.616;1.434;2023-04-02T12:58:41;1.27;;;0.97;;
14060;SDS011;7105;43.616;1.434;2023-04-02T13:01:17;1.20;;;1.10;;
14060;SDS011;7105;43.616;1.434;2023-04-02T13:06:46;1.77;;;1.10;;
14060;SDS011;7105;43.616;1.434;2023-04-02T13:09:26;2.13;;;1.10;;
14060;SDS011;7105;43.616;1.434;2023-04-02T13:11:59;2.50;;;1.13;;
14060;SDS011;7105;43.616;1.434;2023-04-02T13:14:26;1.43;;;1.03;;
14060;SDS011;7105;43.616;1.434;2023-04-02T13:16:52;1.43;;;0.90;;
14060;SDS011;7105;43.616;1.434;2023-04-02T13:19:23;1.20;;;1.10;;
14060;SDS011;7105;43.616;1.434;2023-04-02T13:21:56;2.03;;;1.20;;
14060;SDS011;7105;43.616;1.434;2023-04-02T13:24:24;1.10;;;0.80;;
14060;SDS011;7105;43.616;1.434;2023-04-02T13:26:56;0.80;;;0.73;;
14060;SDS011;7105;43.616;1.434;2023-04-02T13:29:27;3.20;;;1.20;;
14060;SDS011;7105;43.616;1.434;2023-04-02T13:31:53;1.40;;;1.03;;
14060;SDS011;7105;43.616;1.434;2023-04-02T13:34:22;1.73;;;0.93;;
14060;SDS011;7105;43.616;1.434;2023-04-02T13:36:48;0.80;;;0.80;;
14060;SDS011;7105;43.616;1.434;2023-04-02T13:39:14;2.57;;;1.00;;
14060;SDS011;7105;43.616;1.434;2023-04-02T13:41:41;1.03;;;0.93;;
14060;SDS011;7105;43.616;1.434;2023-04-02T13:44:19;1.30;;;1.20;;
14060;SDS011;7105;43.616;1.434;2023-04-02T13:46:49;2.47;;;1.40;;
14060;SDS011;7105;43.616;1.434;2023-04-02T13:49:15;1.07;;;0.97;;
14060;SDS011;7105;43.616;1.434;2023-04-02T13:51:43;3.33;;;1.80;;
14060;SDS011;7105;43.616;1.434;2023-04-02T13:54:25;3.80;;;2.20;;
14060;SDS011;7105;43.616;1.434;2023-04-02T13:56:58;2.53;;;2.10;;
14060;SDS011;7105;43.616;1.434;2023-04-02T13:59:24;3.67;;;1.43;;
14060;SDS011;7105;43.616;1.434;2023-04-02T14:01:52;4.20;;;2.20;;
14060;SDS011;7105;43.616;1.434;2023-04-02T14:04:23;2.50;;;2.00;;
14060;SDS011;7105;43.616;1.434;2023-04-02T14:12:09;3.27;;;2.47;;
14060;SDS011;7105;43.616;1.434;2023-04-02T14:14:54;4.90;;;3.20;;
14060;SDS011;7105;43.616;1.434;2023-04-02T14:23:00;3.43;;;2.57;;
14060;SDS011;7105;43.616;1.434;2023-04-02T14:25:44;3.90;;;2.20;;
14060;SDS011;7105;43.616;1.434;2023-04-02T14:31:40;2.60;;;2.03;;
14060;SDS011;7105;43.616;1.434;2023-04-02T14:48:00;2.70;;;1.50;;
14060;SDS011;7105;43.616;1.434;2023-04-02T14:50:38;2.80;;;1.70;;
14060;SDS011;7105;43.616;1.434;2023-04-02T14:53:16;1.60;;;1.50;;
14060;SDS011;7105;43.616;1.434;2023-04-02T14:55:51;2.50;;;1.50;;
14060;SDS011;7105;43.616;1.434;2023-04-02T15:01:11;1.43;;;1.33;;
14060;SDS011;7105;43.616;1.434;2023-04-02T15:03:46;3.27;;;1.37;;
14060;SDS011;7105;43.616;1.434;2023-04-02T15:06:40;2.17;;;1.40;;
14060;SDS011;7105;43.616;1.434;2023-04-02T15:09:17;2.73;;;1.60;;
14060;SDS011;7105;43.616;1.434;2023-04-02T15:11:56;1.90;;;1.30;;
14060;SDS011;7105;43.616;1.434;2023-04-02T15:14:30;3.23;;;1.37;;
14060;SDS011;7105;43.616;1.434;2023-04-02T15:17:10;3.67;;;1.80;;
14060;SDS011;7105;43.616;1.434;2023-04-02T15:19:36;1.60;;;1.40;;
14060;SDS011;7105;43.616;1.434;2023-04-02T15:30:12;2.73;;;1.93;;
14060;SDS011;7105;43.616;1.434;2023-04-02T15:32:43;2.63;;;1.80;;
14060;SDS011;7105;43.616;1.434;2023-04-02T15:35:21;2.50;;;1.80;;
14060;SDS011;7105;43.616;1.434;2023-04-02T15:38:52;3.27;;;2.03;;
14060;SDS011;7105;43.616;1.434;2023-04-02T15:46:21;4.73;;;2.90;;
14060;SDS011;7105;43.616;1.434;2023-04-02T15:49:14;3.70;;;2.63;;
14060;SDS011;7105;43.616;1.434;2023-04-02T15:52:14;3.70;;;2.63;;
14060;SDS011;7105;43.616;1.434;2023-04-02T16:11:43;3.23;;;1.87;;
14060;SDS011;7105;43.616;1.434;2023-04-02T16:14:14;3.47;;;2.03;;
14060;SDS011;7105;43.616;1.434;2023-04-02T16:16:41;2.40;;;1.70;;
14060;SDS011;7105;43.616;1.434;2023-04-02T16:19:12;4.10;;;2.03;;
14060;SDS011;7105;43.616;1.434;2023-04-02T16:21:55;3.50;;;1.73;;
14060;SDS011;7105;43.616;1.434;2023-04-02T16:24:45;2.77;;;1.50;;
14060;SDS011;7105;43.616;1.434;2023-04-02T16:38:51;1.10;;;0.97;;
14060;SDS011;7105;43.616;1.434;2023-04-02T16:41:34;2.10;;;1.33;;
14060;SDS011;7105;43.616;1.434;2023-04-02T16:46:55;2.97;;;1.33;;
14060;SDS011;7105;43.616;1.434;2023-04-02T16:57:14;3.40;;;1.90;;
14060;SDS011;7105;43.616;1.434;2023-04-02T17:05:29;3.23;;;1.97;;
14060;SDS011;7105;43.616;1.434;2023-04-02T17:08:16;3.53;;;2.43;;
14060;SDS011;7105;43.616;1.434;2023-04-02T17:11:00;2.87;;;2.00;;
14060;SDS011;7105;43.616;1.434;2023-04-02T17:13:39;4.63;;;2.07;;
14060;SDS011;7105;43.616;1.434;2023-04-02T17:18:37;2.73;;;1.67;;
14060;SDS011;7105;43.616;1.434;2023-04-02T17:21:06;2.90;;;1.17;;
14060;SDS011;7105;43.616;1.434;2023-04-02T17:23:52;3.23;;;1.40;;
14060;SDS011;7105;43.616;1.434;2023-04-02T17:26:21;2.13;;;1.50;;
14060;SDS011;7105;43.616;1.434;2023-04-02T17:28:51;3.70;;;1.50;;
14060;SDS011;7105;43.616;1.434;2023-04-02T17:31:21;2.93;;;1.50;;
14060;SDS011;7105;43.616;1.434;2023-04-02T17:33:49;2.63;;;1.50;;
14060;SDS011;7105;43.616;1.434;2023-04-02T17:47:06;4.70;;;2.67;;
14060;SDS011;7105;43.616;1.434;2023-04-02T17:49:39;2.47;;;1.63;;
14060;SDS011;7105;43.616;1.434;2023-04-02T17:52:38;3.53;;;1.67;;
14060;SDS011;7105;43.616;1.434;2023-04-02T18:06:20;3.70;;;1.80;;
14060;SDS011;7105;43.616;1.434;2023-04-02T18:09:29;5.67;;;1.57;;
14060;SDS011;7105;43.616;1.434;2023-04-02T18:25:44;3.53;;;2.03;;
14060;SDS011;7105;43.616;1.434;2023-04-02T18:31:15;5.43;;;2.53;;
14060;SDS011;7105;43.616;1.434;2023-04-02T18:33:59;5.20;;;2.20;;
14060;SDS011;7105;43.616;1.434;2023-04-02T18:37:03;3.83;;;2.43;;
14060;SDS011;7105;43.616;1.434;2023-04-02T18:39:40;3.20;;;2.57;;
14060;SDS011;7105;43.616;1.434;2023-04-02T18:47:48;3.60;;;2.47;;
14060;SDS011;7105;43.616;1.434;2023-04-02T18:50:35;4.77;;;2.40;;
14060;SDS011;7105;43.616;1.434;2023-04-02T18:53:12;5.77;;;3.23;;
14060;SDS011;7105;43.616;1.434;2023-04-02T18:55:45;5.00;;;2.60;;
14060;SDS011;7105;43.616;1.434;2023-04-02T18:58:20;5.90;;;2.70;;
14060;SDS011;7105;43.616;1.434;2023-04-02T19:01:06;5.10;;;2.80;;
14060;SDS011;7105;43.616;1.434;2023-04-02T19:03:42;5.50;;;2.30;;
14060;SDS011;7105;43.616;1.434;2023-04-02T19:06:36;3.43;;;2.27;;
14060;SDS011;7105;43.616;1.434;2023-04-02T19:09:10;3.70;;;2.40;;
14060;SDS011;7105;43.616;1.434;2023-04-02T19:11:45;4.77;;;2.40;;
14060;SDS011;7105;43.616;1.434;2023-04-02T19:23:16;4.07;;;2.30;;
14060;SDS011;7105;43.616;1.434;2023-04-02T19:44:07;5.87;;;3.00;;
14060;SDS011;7105;43.616;1.434;2023-04-02T19:46:35;4.37;;;2.97;;
14060;SDS011;7105;43.616;1.434;2023-04-02T19:51:32;5.17;;;2.67;;
14060;SDS011;7105;43.616;1.434;2023-04-02T19:53:58;7.20;;;2.67;;
14060;SDS011;7105;43.616;1.434;2023-04-02T19:56:25;4.83;;;2.83;;
14060;SDS011;7105;43.616;1.434;2023-04-02T19:58:51;4.20;;;2.67;;
14060;SDS011;7105;43.616;1.434;2023-04-02T20:01:17;5.63;;;3.30;;
14060;SDS011;7105;43.616;1.434;2023-04-02T20:03:43;2.77;;;2.53;;
14060;SDS011;7105;43.616;1.434;2023-04-02T20:06:09;6.30;;;2.57;;
14060;SDS011;7105;43.616;1.434;2023-04-02T20:08:34;5.77;;;2.80;;
14060;SDS011;7105;43.616;1.434;2023-04-02T20:11:01;7.70;;;3.77;;
14060;SDS011;7105;43.616;1.434;2023-04-02T20:13:27;5.93;;;3.00;;
14060;SDS011;7105;43.616;1.434;2023-04-02T20:15:52;8.47;;;3.97;;
14060;SDS011;7105;43.616;1.434;2023-04-02T20:18:18;6.83;;;2.97;;
14060;SDS011;7105;43.616;1.434;2023-04-02T20:20:47;3.80;;;2.40;;
14060;SDS011;7105;43.616;1.434;2023-04-02T20:23:14;5.70;;;2.53;;
14060;SDS011;7105;43.616;1.434;2023-04-02T20:25:44;3.60;;;2.30;;
14060;SDS011;7105;43.616;1.434;2023-04-02T20:28:11;4.50;;;2.60;;
14060;SDS011;7105;43.616;1.434;2023-04-02T20:30:37;4.10;;;2.50;;
14060;SDS011;7105;43.616;1.434;2023-04-02T20:33:02;7.67;;;2.67;;
14060;SDS011;7105;43.616;1.434;2023-04-02T20:35:28;4.27;;;2.80;;
14060;SDS011;7105;43.616;1.434;2023-04-02T20:37:58;4.07;;;2.70;;
14060;SDS011;7105;43.616;1.434;2023-04-02T20:40:24;5.47;;;3.23;;
14060;SDS011;7105;43.616;1.434;2023-04-02T20:42:50;4.20;;;2.80;;
14060;SDS011;7105;43.616;1.434;2023-04-02T20:45:17;8.07;;;3.40;;
14060;SDS011;7105;43.616;1.434;2023-04-02T20:47:43;4.27;;;3.13;;
14060;SDS011;7105;43.616;1.434;2023-04-02T20:50:08;5.50;;;3.20;;
14060;SDS011;7105;43.616;1.434;2023-04-02T20:52:35;4.50;;;3.07;;
14060;SDS011;7105;43.616;1.434;2023-04-02T20:55:01;5.27;;;3.03;;
14060;SDS011;7105;43.616;1.434;2023-04-02T20:57:30;5.30;;;2.70;;
14060;SDS011;7105;43.616;1.434;2023-04-02T20:59:56;3.93;;;2.60;;
14060;SDS011;7105;43.616;1.434;2023-04-02T21:02:23;5.40;;;2.77;;
14060;SDS011;7105;43.616;1.434;2023-04-02T21:04:48;5.20;;;2.60;;
14060;SDS011;7105;43.616;1.434;2023-04-02T21:07:14;4.73;;;2.90;;
14060;SDS011;7105;43.616;1.434;2023-04-02T21:09:40;7.17;;;2.70;;
14060;SDS011;7105;43.616;1.434;2023-04-02T21:12:06;6.37;;;2.67;;
14060;SDS011;7105;43.616;1.434;2023-04-02T21:14:32;5.63;;;2.83;;
14060;SDS011;7105;43.616;1.434;2023-04-02T21:17:02;5.33;;;2.77;;
14060;SDS011;7105;43.616;1.434;2023-04-02T21:19:28;5.03;;;2.50;;
14060;SDS011;7105;43.616;1.434;2023-04-02T21:21:54;5.70;;;2.70;;